Terminal Aerodrome Forecast
Issued by NWS

Home | Current Version | Previous Version | Text Only | Print | Product List | Glossary On
Versions: 1 2 3 4 5 6 7 8 9 10 11 12 13 14 15 16 17 18 19 20 21 22 23 24
000
FTUS43 KMKX 230110 AAA
TAFUES
TAF AMD
KUES 230110Z 2301/2324 04007KT 1/2SM -SHRA FG VCTS OVC003CB
     FM230500 34006KT 1 1/2SM -SHRA BR OVC003
     FM230700 33006KT 2SM -SN BR OVC003
     FM231000 33010KT P6SM VCSH OVC008
     FM231500 33015G23KT P6SM OVC015=

USA.gov is the U.S. government's official web portal to all federal, state and local government web resources and services.